sensor_id;sensor_type;location;lat;lon;timestamp;P1;durP1;ratioP1;P2;durP2;ratioP2
51943;SDS011;37969;53.132;6.370;2023-05-07T00:02:16;35.80;;;28.00;;
51943;SDS011;37969;53.132;6.370;2023-05-07T00:04:42;37.55;;;30.05;;
51943;SDS011;37969;53.132;6.370;2023-05-07T00:07:09;36.13;;;29.38;;
51943;SDS011;37969;53.132;6.370;2023-05-07T00:09:35;37.25;;;28.45;;
51943;SDS011;37969;53.132;6.370;2023-05-07T00:12:02;37.15;;;28.65;;
51943;SDS011;37969;53.132;6.370;2023-05-07T00:14:28;33.75;;;27.90;;
51943;SDS011;37969;53.132;6.370;2023-05-07T00:16:54;41.67;;;29.85;;
51943;SDS011;37969;53.132;6.370;2023-05-07T00:19:21;37.17;;;30.17;;
51943;SDS011;37969;53.132;6.370;2023-05-07T00:21:47;38.88;;;29.17;;
51943;SDS011;37969;53.132;6.370;2023-05-07T00:24:13;39.40;;;29.73;;
51943;SDS011;37969;53.132;6.370;2023-05-07T00:26:39;42.22;;;30.52;;
51943;SDS011;37969;53.132;6.370;2023-05-07T00:29:05;39.17;;;30.42;;
51943;SDS011;37969;53.132;6.370;2023-05-07T00:31:31;41.83;;;29.05;;
51943;SDS011;37969;53.132;6.370;2023-05-07T00:33:57;49.28;;;31.48;;
51943;SDS011;37969;53.132;6.370;2023-05-07T00:36:23;42.85;;;31.60;;
51943;SDS011;37969;53.132;6.370;2023-05-07T00:38:51;42.88;;;31.08;;
51943;SDS011;37969;53.132;6.370;2023-05-07T00:41:17;35.28;;;29.70;;
51943;SDS011;37969;53.132;6.370;2023-05-07T00:43:43;38.67;;;29.52;;
51943;SDS011;37969;53.132;6.370;2023-05-07T00:46:09;42.53;;;31.02;;
51943;SDS011;37969;53.132;6.370;2023-05-07T00:48:36;40.00;;;31.52;;
51943;SDS011;37969;53.132;6.370;2023-05-07T00:51:02;50.78;;;33.95;;
51943;SDS011;37969;53.132;6.370;2023-05-07T00:53:29;43.75;;;30.73;;
51943;SDS011;37969;53.132;6.370;2023-05-07T00:55:55;46.00;;;33.25;;
51943;SDS011;37969;53.132;6.370;2023-05-07T00:58:22;40.95;;;31.65;;
51943;SDS011;37969;53.132;6.370;2023-05-07T01:00:48;45.50;;;31.52;;
51943;SDS011;37969;53.132;6.370;2023-05-07T01:03:15;44.28;;;32.67;;
51943;SDS011;37969;53.132;6.370;2023-05-07T01:05:41;46.58;;;34.50;;
51943;SDS011;37969;53.132;6.370;2023-05-07T01:08:07;46.03;;;32.78;;
51943;SDS011;37969;53.132;6.370;2023-05-07T01:10:33;47.33;;;34.15;;
51943;SDS011;37969;53.132;6.370;2023-05-07T01:13:00;46.63;;;33.95;;
51943;SDS011;37969;53.132;6.370;2023-05-07T01:15:26;46.28;;;33.17;;
51943;SDS011;37969;53.132;6.370;2023-05-07T01:17:52;47.15;;;33.67;;
51943;SDS011;37969;53.132;6.370;2023-05-07T01:20:19;46.28;;;32.85;;
51943;SDS011;37969;53.132;6.370;2023-05-07T01:22:45;43.63;;;32.10;;
51943;SDS011;37969;53.132;6.370;2023-05-07T01:25:11;44.40;;;32.90;;
51943;SDS011;37969;53.132;6.370;2023-05-07T01:27:38;52.20;;;36.90;;
51943;SDS011;37969;53.132;6.370;2023-05-07T01:30:04;59.17;;;37.47;;
51943;SDS011;37969;53.132;6.370;2023-05-07T01:32:33;47.15;;;35.30;;
51943;SDS011;37969;53.132;6.370;2023-05-07T01:35:01;48.20;;;34.63;;
51943;SDS011;37969;53.132;6.370;2023-05-07T01:37:29;44.72;;;33.38;;
51943;SDS011;37969;53.132;6.370;2023-05-07T01:39:55;44.10;;;33.58;;
51943;SDS011;37969;53.132;6.370;2023-05-07T01:42:21;44.70;;;32.85;;
51943;SDS011;37969;53.132;6.370;2023-05-07T01:44:47;44.80;;;35.35;;
51943;SDS011;37969;53.132;6.370;2023-05-07T01:47:14;49.65;;;35.95;;
51943;SDS011;37969;53.132;6.370;2023-05-07T01:49:41;47.25;;;35.53;;
51943;SDS011;37969;53.132;6.370;2023-05-07T01:52:08;51.92;;;36.83;;
51943;SDS011;37969;53.132;6.370;2023-05-07T01:54:34;51.50;;;36.60;;
51943;SDS011;37969;53.132;6.370;2023-05-07T01:57:00;47.90;;;35.03;;
51943;SDS011;37969;53.132;6.370;2023-05-07T01:59:27;46.53;;;35.13;;
51943;SDS011;37969;53.132;6.370;2023-05-07T02:01:53;50.80;;;36.80;;
51943;SDS011;37969;53.132;6.370;2023-05-07T02:04:19;49.08;;;35.13;;
51943;SDS011;37969;53.132;6.370;2023-05-07T02:06:45;49.90;;;36.25;;
51943;SDS011;37969;53.132;6.370;2023-05-07T02:09:11;50.95;;;37.38;;
51943;SDS011;37969;53.132;6.370;2023-05-07T02:11:38;47.08;;;36.38;;
51943;SDS011;37969;53.132;6.370;2023-05-07T02:14:04;49.47;;;36.83;;
51943;SDS011;37969;53.132;6.370;2023-05-07T02:16:30;51.33;;;37.90;;
51943;SDS011;37969;53.132;6.370;2023-05-07T02:18:56;48.20;;;35.70;;
51943;SDS011;37969;53.132;6.370;2023-05-07T02:21:23;50.35;;;37.72;;
51943;SDS011;37969;53.132;6.370;2023-05-07T02:23:50;52.55;;;38.55;;
51943;SDS011;37969;53.132;6.370;2023-05-07T02:26:16;48.85;;;38.10;;
51943;SDS011;37969;53.132;6.370;2023-05-07T02:28:42;54.08;;;40.47;;
51943;SDS011;37969;53.132;6.370;2023-05-07T02:31:08;55.67;;;41.00;;
51943;SDS011;37969;53.132;6.370;2023-05-07T02:33:34;51.85;;;39.08;;
51943;SDS011;37969;53.132;6.370;2023-05-07T02:36:05;54.80;;;39.33;;
51943;SDS011;37969;53.132;6.370;2023-05-07T02:38:31;57.60;;;41.70;;
51943;SDS011;37969;53.132;6.370;2023-05-07T02:40:57;55.90;;;42.05;;
51943;SDS011;37969;53.132;6.370;2023-05-07T02:43:24;57.17;;;41.10;;
51943;SDS011;37969;53.132;6.370;2023-05-07T02:45:59;58.90;;;43.92;;
51943;SDS011;37969;53.132;6.370;2023-05-07T02:48:26;56.80;;;41.47;;
51943;SDS011;37969;53.132;6.370;2023-05-07T02:50:52;56.83;;;40.42;;
51943;SDS011;37969;53.132;6.370;2023-05-07T02:53:18;58.53;;;42.67;;
51943;SDS011;37969;53.132;6.370;2023-05-07T02:55:44;61.70;;;42.63;;
51943;SDS011;37969;53.132;6.370;2023-05-07T02:58:10;64.05;;;42.05;;
51943;SDS011;37969;53.132;6.370;2023-05-07T03:00:37;61.38;;;42.17;;
51943;SDS011;37969;53.132;6.370;2023-05-07T03:03:03;70.55;;;46.92;;
51943;SDS011;37969;53.132;6.370;2023-05-07T03:05:29;64.57;;;43.88;;
51943;SDS011;37969;53.132;6.370;2023-05-07T03:07:55;61.65;;;41.85;;
51943;SDS011;37969;53.132;6.370;2023-05-07T03:10:21;65.68;;;44.50;;
51943;SDS011;37969;53.132;6.370;2023-05-07T03:12:47;68.72;;;44.17;;
51943;SDS011;37969;53.132;6.370;2023-05-07T03:15:13;75.82;;;46.25;;
51943;SDS011;37969;53.132;6.370;2023-05-07T03:17:39;65.13;;;44.80;;
51943;SDS011;37969;53.132;6.370;2023-05-07T03:20:06;69.05;;;45.70;;
51943;SDS011;37969;53.132;6.370;2023-05-07T03:22:32;73.57;;;48.30;;
51943;SDS011;37969;53.132;6.370;2023-05-07T03:24:58;72.65;;;46.35;;
51943;SDS011;37969;53.132;6.370;2023-05-07T03:27:25;68.20;;;44.80;;
51943;SDS011;37969;53.132;6.370;2023-05-07T03:29:51;72.97;;;48.42;;
51943;SDS011;37969;53.132;6.370;2023-05-07T03:32:17;76.53;;;48.30;;
51943;SDS011;37969;53.132;6.370;2023-05-07T03:34:43;77.70;;;48.45;;
51943;SDS011;37969;53.132;6.370;2023-05-07T03:37:09;83.80;;;51.33;;
51943;SDS011;37969;53.132;6.370;2023-05-07T03:39:35;76.00;;;47.65;;
51943;SDS011;37969;53.132;6.370;2023-05-07T03:42:01;75.78;;;47.38;;
51943;SDS011;37969;53.132;6.370;2023-05-07T03:44:27;69.78;;;46.90;;
51943;SDS011;37969;53.132;6.370;2023-05-07T03:46:54;76.85;;;47.75;;
51943;SDS011;37969;53.132;6.370;2023-05-07T03:49:20;78.55;;;47.97;;
51943;SDS011;37969;53.132;6.370;2023-05-07T03:51:46;78.90;;;49.17;;
51943;SDS011;37969;53.132;6.370;2023-05-07T03:54:12;80.35;;;50.85;;
51943;SDS011;37969;53.132;6.370;2023-05-07T03:56:39;83.88;;;51.85;;
51943;SDS011;37969;53.132;6.370;2023-05-07T03:59:05;75.78;;;47.92;;
51943;SDS011;37969;53.132;6.370;2023-05-07T04:01:31;80.05;;;49.15;;
51943;SDS011;37969;53.132;6.370;2023-05-07T04:03:57;73.13;;;48.00;;
51943;SDS011;37969;53.132;6.370;2023-05-07T04:06:23;84.35;;;52.17;;
51943;SDS011;37969;53.132;6.370;2023-05-07T04:08:49;81.20;;;50.25;;
51943;SDS011;37969;53.132;6.370;2023-05-07T04:11:16;83.43;;;49.90;;
51943;SDS011;37969;53.132;6.370;2023-05-07T04:13:42;73.78;;;48.15;;
51943;SDS011;37969;53.132;6.370;2023-05-07T04:16:08;78.80;;;49.92;;
51943;SDS011;37969;53.132;6.370;2023-05-07T04:18:34;77.72;;;48.90;;
51943;SDS011;37969;53.132;6.370;2023-05-07T04:21:00;73.90;;;48.42;;
51943;SDS011;37969;53.132;6.370;2023-05-07T04:23:26;76.53;;;49.08;;
51943;SDS011;37969;53.132;6.370;2023-05-07T04:25:52;70.78;;;47.63;;
51943;SDS011;37969;53.132;6.370;2023-05-07T04:28:19;74.13;;;47.80;;
51943;SDS011;37969;53.132;6.370;2023-05-07T04:30:45;76.80;;;49.50;;
51943;SDS011;37969;53.132;6.370;2023-05-07T04:33:11;78.45;;;49.42;;
51943;SDS011;37969;53.132;6.370;2023-05-07T04:35:37;76.35;;;48.70;;
51943;SDS011;37969;53.132;6.370;2023-05-07T04:38:04;82.20;;;50.00;;
51943;SDS011;37969;53.132;6.370;2023-05-07T04:40:30;75.95;;;48.83;;
51943;SDS011;37969;53.132;6.370;2023-05-07T04:42:56;79.25;;;48.53;;
51943;SDS011;37969;53.132;6.370;2023-05-07T04:45:22;79.43;;;50.33;;
51943;SDS011;37969;53.132;6.370;2023-05-07T04:47:48;77.55;;;49.40;;
51943;SDS011;37969;53.132;6.370;2023-05-07T04:50:14;72.30;;;46.90;;
51943;SDS011;37969;53.132;6.370;2023-05-07T04:52:41;77.05;;;47.50;;
51943;SDS011;37969;53.132;6.370;2023-05-07T04:55:07;68.03;;;46.65;;
51943;SDS011;37969;53.132;6.370;2023-05-07T04:57:33;71.65;;;47.13;;
51943;SDS011;37969;53.132;6.370;2023-05-07T04:59:59;77.50;;;47.13;;
51943;SDS011;37969;53.132;6.370;2023-05-07T05:02:25;76.80;;;48.05;;
51943;SDS011;37969;53.132;6.370;2023-05-07T05:04:51;73.65;;;46.28;;
51943;SDS011;37969;53.132;6.370;2023-05-07T05:07:18;69.43;;;47.53;;
51943;SDS011;37969;53.132;6.370;2023-05-07T05:09:44;71.22;;;47.13;;
51943;SDS011;37969;53.132;6.370;2023-05-07T05:12:10;74.45;;;49.58;;
51943;SDS011;37969;53.132;6.370;2023-05-07T05:14:36;76.10;;;48.53;;
51943;SDS011;37969;53.132;6.370;2023-05-07T05:17:02;70.65;;;46.80;;
51943;SDS011;37969;53.132;6.370;2023-05-07T05:19:28;66.28;;;44.83;;
51943;SDS011;37969;53.132;6.370;2023-05-07T05:21:54;60.85;;;43.78;;
51943;SDS011;37969;53.132;6.370;2023-05-07T05:24:20;65.30;;;44.60;;
51943;SDS011;37969;53.132;6.370;2023-05-07T05:26:47;68.97;;;44.38;;
51943;SDS011;37969;53.132;6.370;2023-05-07T05:29:13;65.70;;;44.67;;
51943;SDS011;37969;53.132;6.370;2023-05-07T05:31:39;65.28;;;43.60;;
51943;SDS011;37969;53.132;6.370;2023-05-07T05:34:06;66.75;;;44.67;;
51943;SDS011;37969;53.132;6.370;2023-05-07T05:36:32;61.25;;;42.08;;
51943;SDS011;37969;53.132;6.370;2023-05-07T05:38:58;61.65;;;43.53;;
51943;SDS011;37969;53.132;6.370;2023-05-07T05:41:24;58.60;;;41.70;;
51943;SDS011;37969;53.132;6.370;2023-05-07T05:43:51;66.93;;;44.47;;
51943;SDS011;37969;53.132;6.370;2023-05-07T05:46:17;61.03;;;42.67;;
51943;SDS011;37969;53.132;6.370;2023-05-07T05:48:43;53.60;;;39.65;;
51943;SDS011;37969;53.132;6.370;2023-05-07T05:51:09;59.05;;;41.83;;
51943;SDS011;37969;53.132;6.370;2023-05-07T05:53:35;57.80;;;40.17;;
51943;SDS011;37969;53.132;6.370;2023-05-07T05:56:02;57.88;;;39.72;;
51943;SDS011;37969;53.132;6.370;2023-05-07T05:58:28;56.25;;;41.13;;
51943;SDS011;37969;53.132;6.370;2023-05-07T06:00:54;52.58;;;38.28;;
51943;SDS011;37969;53.132;6.370;2023-05-07T06:03:21;53.88;;;39.20;;
51943;SDS011;37969;53.132;6.370;2023-05-07T06:05:47;52.08;;;38.67;;
51943;SDS011;37969;53.132;6.370;2023-05-07T06:08:13;51.60;;;38.05;;
51943;SDS011;37969;53.132;6.370;2023-05-07T06:10:40;58.80;;;40.78;;
51943;SDS011;37969;53.132;6.370;2023-05-07T06:13:07;53.45;;;37.28;;
51943;SDS011;37969;53.132;6.370;2023-05-07T06:15:33;49.58;;;36.78;;
51943;SDS011;37969;53.132;6.370;2023-05-07T06:17:59;49.45;;;37.10;;
51943;SDS011;37969;53.132;6.370;2023-05-07T06:20:25;56.15;;;38.83;;
51943;SDS011;37969;53.132;6.370;2023-05-07T06:22:51;44.53;;;34.20;;
51943;SDS011;37969;53.132;6.370;2023-05-07T06:25:18;48.38;;;35.47;;
51943;SDS011;37969;53.132;6.370;2023-05-07T06:27:45;53.40;;;38.05;;
51943;SDS011;37969;53.132;6.370;2023-05-07T06:30:11;43.67;;;33.15;;
51943;SDS011;37969;53.132;6.370;2023-05-07T06:32:37;45.17;;;35.10;;
51943;SDS011;37969;53.132;6.370;2023-05-07T06:35:03;47.63;;;36.10;;
51943;SDS011;37969;53.132;6.370;2023-05-07T06:37:30;48.35;;;35.05;;
51943;SDS011;37969;53.132;6.370;2023-05-07T06:39:56;46.42;;;34.65;;
51943;SDS011;37969;53.132;6.370;2023-05-07T06:42:22;43.72;;;34.03;;
51943;SDS011;37969;53.132;6.370;2023-05-07T06:44:48;41.65;;;33.75;;
51943;SDS011;37969;53.132;6.370;2023-05-07T06:47:14;45.28;;;35.78;;
51943;SDS011;37969;53.132;6.370;2023-05-07T06:49:40;44.83;;;34.45;;
51943;SDS011;37969;53.132;6.370;2023-05-07T06:52:06;43.25;;;32.97;;
51943;SDS011;37969;53.132;6.370;2023-05-07T06:54:33;41.30;;;32.75;;
51943;SDS011;37969;53.132;6.370;2023-05-07T06:56:59;42.15;;;33.28;;
51943;SDS011;37969;53.132;6.370;2023-05-07T06:59:25;42.33;;;33.80;;
51943;SDS011;37969;53.132;6.370;2023-05-07T07:01:51;41.42;;;33.28;;
51943;SDS011;37969;53.132;6.370;2023-05-07T07:04:17;41.03;;;31.70;;
51943;SDS011;37969;53.132;6.370;2023-05-07T07:06:44;39.00;;;31.20;;
51943;SDS011;37969;53.132;6.370;2023-05-07T07:09:11;46.03;;;31.95;;
51943;SDS011;37969;53.132;6.370;2023-05-07T07:11:37;38.25;;;31.13;;
51943;SDS011;37969;53.132;6.370;2023-05-07T07:14:04;40.90;;;31.90;;
51943;SDS011;37969;53.132;6.370;2023-05-07T07:16:31;40.55;;;31.33;;
51943;SDS011;37969;53.132;6.370;2023-05-07T07:18:57;40.92;;;31.73;;
51943;SDS011;37969;53.132;6.370;2023-05-07T07:21:23;38.67;;;31.35;;
51943;SDS011;37969;53.132;6.370;2023-05-07T07:23:49;40.42;;;32.13;;
51943;SDS011;37969;53.132;6.370;2023-05-07T07:26:16;41.67;;;32.30;;
51943;SDS011;37969;53.132;6.370;2023-05-07T07:28:42;38.45;;;31.27;;
51943;SDS011;37969;53.132;6.370;2023-05-07T07:31:08;40.50;;;31.20;;
51943;SDS011;37969;53.132;6.370;2023-05-07T07:33:35;39.38;;;31.63;;
51943;SDS011;37969;53.132;6.370;2023-05-07T07:36:01;38.30;;;30.92;;
51943;SDS011;37969;53.132;6.370;2023-05-07T07:38:27;36.83;;;30.05;;
51943;SDS011;37969;53.132;6.370;2023-05-07T07:40:53;42.40;;;32.00;;
51943;SDS011;37969;53.132;6.370;2023-05-07T07:43:20;41.13;;;31.20;;
51943;SDS011;37969;53.132;6.370;2023-05-07T07:45:46;38.03;;;30.48;;
51943;SDS011;37969;53.132;6.370;2023-05-07T07:48:12;37.90;;;31.52;;
51943;SDS011;37969;53.132;6.370;2023-05-07T07:50:38;35.95;;;29.50;;
51943;SDS011;37969;53.132;6.370;2023-05-07T07:53:04;40.05;;;30.80;;
51943;SDS011;37969;53.132;6.370;2023-05-07T07:55:30;41.97;;;31.08;;
51943;SDS011;37969;53.132;6.370;2023-05-07T07:57:57;38.03;;;30.23;;
51943;SDS011;37969;53.132;6.370;2023-05-07T08:00:23;38.75;;;30.70;;
51943;SDS011;37969;53.132;6.370;2023-05-07T08:02:49;37.42;;;31.02;;
51943;SDS011;37969;53.132;6.370;2023-05-07T08:05:15;38.42;;;31.52;;
51943;SDS011;37969;53.132;6.370;2023-05-07T08:07:41;40.83;;;31.80;;
51943;SDS011;37969;53.132;6.370;2023-05-07T08:10:08;38.95;;;31.85;;
51943;SDS011;37969;53.132;6.370;2023-05-07T08:12:34;41.17;;;32.85;;
51943;SDS011;37969;53.132;6.370;2023-05-07T08:15:01;37.65;;;30.13;;
51943;SDS011;37969;53.132;6.370;2023-05-07T08:17:27;42.47;;;33.08;;
51943;SDS011;37969;53.132;6.370;2023-05-07T08:19:53;43.25;;;32.92;;
51943;SDS011;37969;53.132;6.370;2023-05-07T08:22:20;40.47;;;31.63;;
51943;SDS011;37969;53.132;6.370;2023-05-07T08:24:47;40.72;;;33.15;;
51943;SDS011;37969;53.132;6.370;2023-05-07T08:27:13;42.38;;;32.25;;
51943;SDS011;37969;53.132;6.370;2023-05-07T08:29:39;38.30;;;30.67;;
51943;SDS011;37969;53.132;6.370;2023-05-07T08:32:05;38.70;;;31.52;;
51943;SDS011;37969;53.132;6.370;2023-05-07T08:34:32;38.88;;;31.60;;
51943;SDS011;37969;53.132;6.370;2023-05-07T08:36:58;37.00;;;31.73;;
51943;SDS011;37969;53.132;6.370;2023-05-07T08:39:24;36.83;;;30.45;;
51943;SDS011;37969;53.132;6.370;2023-05-07T08:41:50;40.58;;;30.88;;
51943;SDS011;37969;53.132;6.370;2023-05-07T08:44:19;39.97;;;31.67;;
51943;SDS011;37969;53.132;6.370;2023-05-07T08:46:47;40.53;;;30.88;;
51943;SDS011;37969;53.132;6.370;2023-05-07T08:49:16;39.60;;;30.27;;
51943;SDS011;37969;53.132;6.370;2023-05-07T08:51:42;42.90;;;32.22;;
51943;SDS011;37969;53.132;6.370;2023-05-07T08:54:09;40.40;;;30.58;;
51943;SDS011;37969;53.132;6.370;2023-05-07T08:56:37;36.35;;;30.90;;
51943;SDS011;37969;53.132;6.370;2023-05-07T08:59:05;36.33;;;30.17;;
51943;SDS011;37969;53.132;6.370;2023-05-07T09:01:31;40.40;;;32.97;;
51943;SDS011;37969;53.132;6.370;2023-05-07T09:03:57;39.53;;;31.55;;
51943;SDS011;37969;53.132;6.370;2023-05-07T09:06:23;38.25;;;31.75;;
51943;SDS011;37969;53.132;6.370;2023-05-07T09:08:50;37.45;;;31.65;;
51943;SDS011;37969;53.132;6.370;2023-05-07T09:11:19;37.55;;;30.45;;
51943;SDS011;37969;53.132;6.370;2023-05-07T09:13:46;38.30;;;32.10;;
51943;SDS011;37969;53.132;6.370;2023-05-07T09:16:12;35.75;;;30.17;;
51943;SDS011;37969;53.132;6.370;2023-05-07T09:18:42;37.72;;;31.48;;
51943;SDS011;37969;53.132;6.370;2023-05-07T09:21:10;34.58;;;28.98;;
51943;SDS011;37969;53.132;6.370;2023-05-07T09:26:05;35.35;;;29.95;;
51943;SDS011;37969;53.132;6.370;2023-05-07T09:28:37;35.47;;;29.85;;
51943;SDS011;37969;53.132;6.370;2023-05-07T09:31:04;37.67;;;30.40;;
51943;SDS011;37969;53.132;6.370;2023-05-07T09:33:30;36.10;;;29.48;;
51943;SDS011;37969;53.132;6.370;2023-05-07T09:35:56;35.90;;;28.75;;
51943;SDS011;37969;53.132;6.370;2023-05-07T09:38:22;34.05;;;28.55;;
51943;SDS011;37969;53.132;6.370;2023-05-07T09:41:01;31.52;;;28.13;;
51943;SDS011;37969;53.132;6.370;2023-05-07T09:43:31;33.42;;;28.23;;
51943;SDS011;37969;53.132;6.370;2023-05-07T09:45:58;45.47;;;27.30;;
51943;SDS011;37969;53.132;6.370;2023-05-07T09:48:25;33.03;;;27.83;;
51943;SDS011;37969;53.132;6.370;2023-05-07T09:50:51;30.45;;;26.92;;
51943;SDS011;37969;53.132;6.370;2023-05-07T09:53:23;31.45;;;26.70;;
51943;SDS011;37969;53.132;6.370;2023-05-07T09:55:50;31.73;;;27.00;;
51943;SDS011;37969;53.132;6.370;2023-05-07T09:58:17;33.15;;;26.83;;
51943;SDS011;37969;53.132;6.370;2023-05-07T10:00:44;32.38;;;25.85;;
51943;SDS011;37969;53.132;6.370;2023-05-07T10:03:11;30.25;;;25.77;;
51943;SDS011;37969;53.132;6.370;2023-05-07T10:05:39;29.85;;;24.77;;
51943;SDS011;37969;53.132;6.370;2023-05-07T10:08:06;30.85;;;25.83;;
51943;SDS011;37969;53.132;6.370;2023-05-07T10:10:32;28.42;;;25.40;;
51943;SDS011;37969;53.132;6.370;2023-05-07T10:13:00;27.85;;;23.98;;
51943;SDS011;37969;53.132;6.370;2023-05-07T10:15:27;26.20;;;23.23;;
51943;SDS011;37969;53.132;6.370;2023-05-07T10:17:55;27.45;;;24.55;;
51943;SDS011;37969;53.132;6.370;2023-05-07T10:20:21;27.52;;;24.63;;
51943;SDS011;37969;53.132;6.370;2023-05-07T10:22:48;29.23;;;24.13;;
51943;SDS011;37969;53.132;6.370;2023-05-07T10:25:18;28.20;;;24.80;;
51943;SDS011;37969;53.132;6.370;2023-05-07T10:27:46;27.23;;;23.25;;
51943;SDS011;37969;53.132;6.370;2023-05-07T10:32:48;26.95;;;23.55;;
51943;SDS011;37969;53.132;6.370;2023-05-07T10:35:17;29.93;;;24.10;;
51943;SDS011;37969;53.132;6.370;2023-05-07T10:37:45;25.98;;;23.15;;
51943;SDS011;37969;53.132;6.370;2023-05-07T10:40:11;27.58;;;24.23;;
51943;SDS011;37969;53.132;6.370;2023-05-07T10:42:38;26.88;;;23.15;;
51943;SDS011;37969;53.132;6.370;2023-05-07T10:45:12;25.00;;;22.25;;
51943;SDS011;37969;53.132;6.370;2023-05-07T10:48:05;25.80;;;22.90;;
51943;SDS011;37969;53.132;6.370;2023-05-07T10:50:25;24.27;;;21.65;;
51943;SDS011;37969;53.132;6.370;2023-05-07T10:55:35;25.75;;;23.05;;
51943;SDS011;37969;53.132;6.370;2023-05-07T11:00:47;25.65;;;22.90;;
51943;SDS011;37969;53.132;6.370;2023-05-07T11:03:13;26.95;;;21.90;;
51943;SDS011;37969;53.132;6.370;2023-05-07T11:05:40;24.77;;;22.20;;
51943;SDS011;37969;53.132;6.370;2023-05-07T11:08:07;25.85;;;21.38;;
51943;SDS011;37969;53.132;6.370;2023-05-07T11:10:47;27.45;;;22.77;;
51943;SDS011;37969;53.132;6.370;2023-05-07T11:13:14;26.02;;;22.25;;
51943;SDS011;37969;53.132;6.370;2023-05-07T11:15:43;22.95;;;20.60;;
51943;SDS011;37969;53.132;6.370;2023-05-07T11:18:10;24.60;;;22.02;;
51943;SDS011;37969;53.132;6.370;2023-05-07T11:20:45;23.13;;;20.65;;
51943;SDS011;37969;53.132;6.370;2023-05-07T11:28:27;22.63;;;20.23;;
51943;SDS011;37969;53.132;6.370;2023-05-07T11:30:54;24.98;;;21.27;;
51943;SDS011;37969;53.132;6.370;2023-05-07T11:33:20;23.15;;;20.75;;
51943;SDS011;37969;53.132;6.370;2023-05-07T11:35:47;22.98;;;20.67;;
51943;SDS011;37969;53.132;6.370;2023-05-07T11:38:13;23.85;;;20.73;;
51943;SDS011;37969;53.132;6.370;2023-05-07T11:40:50;22.67;;;19.73;;
51943;SDS011;37969;53.132;6.370;2023-05-07T11:43:16;23.08;;;20.67;;
51943;SDS011;37969;53.132;6.370;2023-05-07T11:45:43;22.30;;;19.90;;
51943;SDS011;37969;53.132;6.370;2023-05-07T11:48:10;22.95;;;20.50;;
51943;SDS011;37969;53.132;6.370;2023-05-07T11:50:49;21.98;;;19.75;;
51943;SDS011;37969;53.132;6.370;2023-05-07T11:53:16;22.77;;;20.40;;
51943;SDS011;37969;53.132;6.370;2023-05-07T11:55:43;22.42;;;20.23;;
51943;SDS011;37969;53.132;6.370;2023-05-07T11:58:10;20.90;;;18.88;;
51943;SDS011;37969;53.132;6.370;2023-05-07T12:00:37;20.73;;;18.50;;
51943;SDS011;37969;53.132;6.370;2023-05-07T12:03:03;21.90;;;19.60;;
51943;SDS011;37969;53.132;6.370;2023-05-07T12:05:30;20.38;;;18.10;;
51943;SDS011;37969;53.132;6.370;2023-05-07T12:07:57;21.02;;;19.02;;
51943;SDS011;37969;53.132;6.370;2023-05-07T12:10:23;20.58;;;18.45;;
51943;SDS011;37969;53.132;6.370;2023-05-07T12:12:50;20.35;;;18.20;;
51943;SDS011;37969;53.132;6.370;2023-05-07T12:15:16;20.90;;;18.67;;
51943;SDS011;37969;53.132;6.370;2023-05-07T12:17:43;21.67;;;18.42;;
51943;SDS011;37969;53.132;6.370;2023-05-07T12:20:09;20.60;;;18.60;;
51943;SDS011;37969;53.132;6.370;2023-05-07T12:22:36;21.10;;;19.10;;
51943;SDS011;37969;53.132;6.370;2023-05-07T12:25:02;22.90;;;19.40;;
51943;SDS011;37969;53.132;6.370;2023-05-07T12:27:28;20.70;;;18.63;;
51943;SDS011;37969;53.132;6.370;2023-05-07T12:29:56;19.45;;;17.65;;
51943;SDS011;37969;53.132;6.370;2023-05-07T12:32:23;20.23;;;18.13;;
51943;SDS011;37969;53.132;6.370;2023-05-07T12:34:50;18.85;;;17.15;;
51943;SDS011;37969;53.132;6.370;2023-05-07T12:37:17;19.67;;;17.77;;
51943;SDS011;37969;53.132;6.370;2023-05-07T12:39:48;20.40;;;18.40;;
51943;SDS011;37969;53.132;6.370;2023-05-07T12:42:15;19.80;;;17.90;;
51943;SDS011;37969;53.132;6.370;2023-05-07T12:44:43;19.27;;;17.38;;
51943;SDS011;37969;53.132;6.370;2023-05-07T12:47:11;24.88;;;18.27;;
51943;SDS011;37969;53.132;6.370;2023-05-07T12:49:38;19.48;;;17.58;;
51943;SDS011;37969;53.132;6.370;2023-05-07T12:52:05;19.77;;;17.98;;
51943;SDS011;37969;53.132;6.370;2023-05-07T12:54:33;18.70;;;17.02;;
51943;SDS011;37969;53.132;6.370;2023-05-07T12:57:00;19.73;;;17.85;;
51943;SDS011;37969;53.132;6.370;2023-05-07T12:59:31;19.15;;;17.35;;
51943;SDS011;37969;53.132;6.370;2023-05-07T13:01:58;19.42;;;17.10;;
51943;SDS011;37969;53.132;6.370;2023-05-07T13:04:24;18.48;;;16.63;;
51943;SDS011;37969;53.132;6.370;2023-05-07T13:06:51;18.10;;;16.30;;
51943;SDS011;37969;53.132;6.370;2023-05-07T13:09:17;17.65;;;15.77;;
51943;SDS011;37969;53.132;6.370;2023-05-07T13:11:43;19.33;;;17.52;;
51943;SDS011;37969;53.132;6.370;2023-05-07T13:14:09;18.63;;;16.83;;
51943;SDS011;37969;53.132;6.370;2023-05-07T13:16:35;17.67;;;15.93;;
51943;SDS011;37969;53.132;6.370;2023-05-07T13:19:02;19.98;;;17.83;;
51943;SDS011;37969;53.132;6.370;2023-05-07T13:21:28;20.40;;;18.40;;
51943;SDS011;37969;53.132;6.370;2023-05-07T13:23:55;18.73;;;17.02;;
51943;SDS011;37969;53.132;6.370;2023-05-07T13:26:23;17.17;;;15.57;;
51943;SDS011;37969;53.132;6.370;2023-05-07T13:28:49;17.85;;;16.15;;
51943;SDS011;37969;53.132;6.370;2023-05-07T13:31:16;18.77;;;16.65;;
51943;SDS011;37969;53.132;6.370;2023-05-07T13:33:43;16.73;;;15.23;;
51943;SDS011;37969;53.132;6.370;2023-05-07T13:36:09;16.75;;;15.15;;
51943;SDS011;37969;53.132;6.370;2023-05-07T13:38:35;18.25;;;16.45;;
51943;SDS011;37969;53.132;6.370;2023-05-07T13:41:01;17.50;;;15.80;;
51943;SDS011;37969;53.132;6.370;2023-05-07T13:43:27;17.80;;;15.07;;
51943;SDS011;37969;53.132;6.370;2023-05-07T13:45:54;17.20;;;15.48;;
51943;SDS011;37969;53.132;6.370;2023-05-07T13:48:20;16.58;;;14.95;;
51943;SDS011;37969;53.132;6.370;2023-05-07T13:50:46;19.48;;;16.13;;
51943;SDS011;37969;53.132;6.370;2023-05-07T13:53:12;16.98;;;15.32;;
51943;SDS011;37969;53.132;6.370;2023-05-07T13:58:08;16.88;;;14.95;;
51943;SDS011;37969;53.132;6.370;2023-05-07T14:00:34;16.73;;;15.23;;
51943;SDS011;37969;53.132;6.370;2023-05-07T14:03:00;17.13;;;15.18;;
51943;SDS011;37969;53.132;6.370;2023-05-07T14:05:26;16.48;;;14.98;;
51943;SDS011;37969;53.132;6.370;2023-05-07T14:07:53;16.80;;;15.10;;
51943;SDS011;37969;53.132;6.370;2023-05-07T14:10:20;16.92;;;15.43;;
51943;SDS011;37969;53.132;6.370;2023-05-07T14:12:46;17.02;;;15.30;;
51943;SDS011;37969;53.132;6.370;2023-05-07T14:15:12;16.83;;;15.43;;
51943;SDS011;37969;53.132;6.370;2023-05-07T14:17:38;16.42;;;14.82;;
51943;SDS011;37969;53.132;6.370;2023-05-07T14:20:05;15.75;;;14.38;;
51943;SDS011;37969;53.132;6.370;2023-05-07T14:22:32;15.15;;;13.77;;
51943;SDS011;37969;53.132;6.370;2023-05-07T14:24:58;14.95;;;13.43;;
51943;SDS011;37969;53.132;6.370;2023-05-07T14:27:24;15.70;;;14.10;;
51943;SDS011;37969;53.132;6.370;2023-05-07T14:29:51;16.30;;;14.77;;
51943;SDS011;37969;53.132;6.370;2023-05-07T14:32:17;14.98;;;13.05;;
51943;SDS011;37969;53.132;6.370;2023-05-07T14:34:44;14.10;;;12.80;;
51943;SDS011;37969;53.132;6.370;2023-05-07T14:37:10;14.77;;;13.48;;